Station: West Wyalong  

  Atmospheric Gas Attenuation - ITU Rec 676-11   ----------------- dB/100km -----------------
Date Time Temp RH % AH g/m3 Dew Point Wind Direction Speed kph Gust kph Barometer mB Rainfall Since 9am 24GHz 47GHz 76GHz 122GHz 134GHz 241GHz
08/05 12:30 15 61 7.82 7.5 28 37 1023.5 0 17.9 24.7 36.6 95.8 87.7 300.9
08/05 12:20 14.9 61 7.77 7.5 30 39 1023.6 0 17.8 24.6 36.5 95.4 87.1 299.1
08/05 12:10 14.5 62 7.71 7.3 30 33 1023.9 0 17.7 24.7 36.4 95.3 86.8 298.0
08/05 12:00 14.5 63 7.84 7.5 30 41 1024 0 17.9 24.9 36.9 96.6 88.5 303.8
08/05 11:50 15.1 60 7.74 7.4 33 39 1024 0 17.7 24.6 36.3 94.9 86.6 297.1
08/05 11:40 14.4 63 7.79 7.5 22 30 1024.1 0 17.8 24.8 36.8 96.2 88.0 302.0
08/05 11:30 14.4 63 7.79 7.5 28 37 1024.1 0 17.8 24.8 36.8 96.2 88.0 302.0
08/05 11:20 14.6 63 7.88 7.6 19 22 1024.2 0 18.0 24.9 37.0 96.9 88.9 305.3
08/05 11:10 14.8 63 7.98 7.8 26 30 1024.2 0 18.2 25.0 37.3 97.7 90.0 309.0
08/05 11:00 14.2 63 7.69 7.3 26 35 1024.4 0 17.6 24.7 36.5 95.5 87.0 298.3
08/05 10:50 14.3 64 7.86 7.6 19 28 1024.6 0 18.0 25.0 37.1 97.1 89.0 305.7
08/05 10:40 14.3 64 7.86 7.6 26 33 1024.5 0 18.0 25.0 37.1 97.1 89.0 305.6
08/05 10:30 13.6 65 7.65 7.2 22 30 1024.7 0 17.6 24.9 36.6 95.8 87.1 298.9
08/05 10:20 13.1 68 7.76 7.3 22 26 1024.6 0 17.8 25.2 37.3 97.6 89.1 305.8
08/05 10:10 12.8 69 7.73 7.3 20 24 1024.7 0 17.8 25.2 37.3 97.6 89.1 305.6
08/05 10:00 12.2 72 7.77 7.3 20 26 1024.8 0 17.9 25.4 37.8 98.8 90.3 309.8
08/05 09:50 11.6 73 7.59 6.9 20 24 1024.8 0 17.5 25.3 37.3 97.6 88.6 303.8
08/05 09:40 11.1 75 7.56 6.8 28 32 1025 0 17.5 25.4 37.4 98.0 88.8 304.4
08/05 09:30 11.3 77 7.86 7.4 20 28 1025 0 18.1 25.9 38.6 100.9 92.6 317.6
08/05 09:20 10.7 77 7.56 6.8 20 22 1025 0 17.5 25.5 37.6 98.4 89.3 305.9
08/05 09:10 10.4 77 7.42 6.5 19 22 1025.1 0 17.2 25.4 37.2 97.3 87.7 300.5
08/05 09:00 10.5 77 7.47 6.6 20 30 1025.1 0 17.3 25.5 37.4 97.7 88.3 302.5
08/05 08:50 9.8 80 7.42 6.5 20 24 1024.8 0 17.2 25.6 37.5 98.0 88.4 302.8
08/05 08:40 9.8 78 7.24 6.2 19 20 1024.9 0 16.9 25.3 36.7 96.1 86.0 294.3
08/05 08:30 9.6 77 7.06 5.8 17 24 1024.8 0 16.5 25.0 36.1 94.4 83.8 286.6
08/05 08:20 9.3 77 6.92 5.5 17 19 1024.7 0 16.2 24.9 35.7 93.2 82.3 281.2
08/05 08:10 9.2 77 6.88 5.4 15 17 1024.7 0 16.1 24.8 35.6 92.9 81.8 279.7
08/05 08:00 9 77 6.79 5.2 15 19 1024.7 0 15.9 24.8 35.3 92.2 80.8 276.2
08/05 07:50 8.8 78 6.79 5.2 15 17 1024.6 0 15.9 24.8 35.4 92.4 81.0 276.9
08/05 07:40 8.6 78 6.7 5 13 15 1024.5 0 15.7 24.7 35.1 91.6 80.0 273.3
08/05 07:30 8.4 78 6.62 4.8 13 17 1024.6 0 15.6 24.6 34.9 91.0 79.2 270.3
08/05 07:20 8.2 77 6.45 4.4 13 15 1024.4 0 15.2 24.4 34.3 89.4 77.1 263.1
08/05 07:10 8.2 77 6.45 4.4 11 13 1024.3 0 15.2 24.4 34.2 89.4 77.1 263.0
08/05 07:00 8.1 77 6.41 4.3 13 19 1024.1 0 15.1 24.4 34.1 89.1 76.7 261.5
08/05 06:50 8 77 6.37 4.2 15 17 1023.9 0 15.1 24.3 34.0 88.7 76.2 259.9
08/05 06:40 7.8 78 6.37 4.2 15 19 1023.8 0 15.1 24.4 34.1 88.9 76.4 260.5
08/05 06:30 7.7 78 6.33 4.1 17 20 1023.9 0 15.0 24.3 34.0 88.6 76.0 259.0
08/05 06:20 7.5 78 6.25 3.9 15 17 1024 0 14.8 24.3 33.7 88.0 75.1 256.0
08/05 06:10 7.4 78 6.21 3.8 24 30 1023.9 0 14.7 24.2 33.6 87.7 74.7 254.4
08/05 06:00 7 79 6.12 3.6 22 28 1023.9 0 14.6 24.2 33.4 87.2 73.9 251.5
08/05 05:50 7 79 6.12 3.6 20 24 1023.8 0 14.6 24.2 33.4 87.2 73.9 251.5
08/05 05:40 6.9 79 6.08 3.5 20 24 1023.8 0 14.5 24.1 33.3 86.8 73.4 250.0
08/05 05:30 7 78 6.05 3.4 22 28 1023.8 0 14.4 24.1 33.1 86.4 73.0 248.3
08/05 05:20 7.1 77 6.01 3.3 22 26 1023.8 0 14.3 24.0 32.9 85.9 72.3 246.1
08/05 05:10 7.2 77 6.05 3.4 24 30 1023.7 0 14.4 24.0 33.0 86.2 72.8 247.6
08/05 05:00 7 77 5.97 3.3 20 26 1023.7 0 14.2 23.9 32.8 85.5 71.9 244.5
08/05 04:50 7.1 76 5.93 3.2 22 26 1023.7 0 14.2 23.8 32.6 85.0 71.3 242.4
08/05 04:40 7.2 75 5.89 3.1 20 26 1023.6 0 14.1 23.7 32.4 84.5 70.7 240.2
08/05 04:30 7.2 75 5.89 3.1 22 28 1023.6 0 14.1 23.7 32.4 84.5 70.7 240.2
08/05 04:20 7.2 74 5.81 2.9 20 24 1023.6 0 13.9 23.6 32.1 83.6 69.6 236.5
08/05 04:10 7.2 74 5.81 2.9 22 26 1023.7 0 13.9 23.6 32.1 83.6 69.6 236.6
08/05 04:00 7.5 73 5.85 3 19 28 1023.7 0 14.0 23.6 32.1 83.7 69.9 237.5
08/05 03:50 7.4 73 5.81 2.9 20 24 1023.6 0 13.9 23.6 32.0 83.4 69.4 236.0
08/05 03:40 7.3 73 5.77 2.8 19 20 1023.7 0 13.8 23.5 31.9 83.1 69.0 234.4
08/05 03:30 7.5 72 5.77 2.8 20 28 1023.6 0 13.8 23.5 31.8 82.9 68.8 233.8
08/05 03:20 7.5 72 5.77 2.8 22 26 1023.5 0 13.8 23.5 31.8 82.9 68.8 233.8
08/05 03:10 7.8 71 5.8 2.9 22 26 1023.6 0 13.9 23.4 31.8 82.9 68.9 234.3
08/05 03:00 7.8 70 5.72 2.7 20 28 1023.6 0 13.7 23.3 31.5 82.0 67.9 230.7
08/05 02:50 7.8 70 5.72 2.7 19 22 1023.7 0 13.7 23.3 31.5 82.1 67.9 230.7
08/05 02:40 7.8 70 5.72 2.7 22 26 1023.7 0 13.7 23.3 31.5 82.1 67.9 230.7
08/05 02:30 7.8 69 5.63 2.5 20 28 1023.7 0 13.5 23.2 31.1 81.1 66.8 226.6
08/05 02:20 7.7 69 5.6 2.4 19 20 1023.8 0 13.4 23.2 31.1 80.9 66.5 225.6
08/05 02:10 7.8 68 5.55 2.3 19 20 1024 0 13.3 23.1 30.9 80.3 65.7 223.1
08/05 02:00 7.7 69 5.6 2.4 19 26 1024.1 0 13.4 23.2 31.1 80.9 66.5 225.6
08/05 01:50 7.5 69 5.53 2.2 17 19 1024.1 0 13.3 23.1 30.9 80.4 65.7 223.1
08/05 01:40 7.3 69 5.45 2 17 19 1024.2 0 13.1 23.0 30.7 79.8 64.9 220.0
08/05 01:30 6.9 70 5.39 1.8 15 20 1024.1 0 13.0 23.1 30.6 79.6 64.4 218.4
08/05 01:20 7.1 70 5.46 2 15 17 1024.1 0 13.1 23.1 30.8 80.1 65.2 221.0
08/05 01:10 6.8 70 5.36 1.7 15 19 1024.2 0 12.9 23.0 30.5 79.4 64.1 217.3
08/05 01:00 6.7 71 5.4 1.8 13 17 1024.3 0 13.0 23.1 30.7 79.9 64.8 219.4
08/05 00:50 6.5 71 5.33 1.6 13 15 1024.3 0 12.9 23.1 30.5 79.4 64.0 216.8
08/05 00:40 6.6 70 5.29 1.5 13 15 1024.5 0 12.8 23.0 30.3 78.9 63.4 214.8
08/05 00:20 6.3 73 5.41 1.8 17 17 1024.7 0 13.1 23.3 30.9 80.4 65.2 221.1
08/05 00:10 6.2 72 5.3 1.5 15 17 1024.8 0 12.8 23.1 30.5 79.4 63.9 216.4
08/05 00:00 6.1 72 5.26 1.4 13 17 1025 0 12.8 23.1 30.4 79.1 63.5 214.8
07/05 23:50 5.9 72 5.19 1.2 11 13 1024.9 0 12.6 23.0 30.2 78.5 62.7 212.2
07/05 23:40 6.1 71 5.19 1.2 11 13 1024.9 0 12.6 23.0 30.1 78.3 62.6 211.6
07/05 23:30 6.1 71 5.19 1.2 11 15 1025 0 12.6 23.0 30.1 78.4 62.6 211.7
07/05 23:20 5.9 72 5.19 1.2 11 11 1024.8 0 12.6 23.0 30.2 78.5 62.7 212.2
07/05 23:10 6.2 70 5.15 1.1 11 13 1024.9 0 12.5 22.9 29.9 77.8 62.0 209.6
07/05 23:00 6.5 68 5.1 1 13 15 1025 0 12.4 22.7 29.6 77.0 61.1 206.6
07/05 22:50 6.8 67 5.13 1.1 13 13 1025 0 12.5 22.7 29.6 77.0 61.2 207.1
07/05 22:40 7.1 66 5.15 1.2 17 19 1025 0 12.5 22.7 29.6 77.0 61.3 207.2
07/05 22:30 7.2 66 5.18 1.3 17 22 1025 0 12.5 22.7 29.7 77.2 61.6 208.3
07/05 22:20 6.8 68 5.2 1.3 17 20 1025.1 0 12.6 22.8 29.9 77.8 62.1 210.3
07/05 22:10 6.8 68 5.2 1.3 15 17 1025.1 0 12.6 22.8 29.9 77.8 62.1 210.3
07/05 22:00 7 66 5.12 1.1 15 17 1025.1 0 12.4 22.6 29.5 76.8 61.0 206.2
07/05 21:50 7.2 66 5.18 1.3 17 19 1024.9 0 12.5 22.7 29.7 77.2 61.6 208.3
07/05 21:40 7.1 66 5.15 1.2 15 17 1025 0 12.5 22.7 29.6 77.0 61.3 207.2
07/05 21:30 7.1 65 5.07 1 13 17 1025.1 0 12.3 22.5 29.3 76.2 60.3 203.7
07/05 21:20 7.3 65 5.14 1.2 15 17 1025 0 12.5 22.6 29.5 76.7 61.0 206.3
07/05 21:10 7.3 65 5.14 1.2 15 17 1024.8 0 12.5 22.6 29.5 76.7 61.0 206.2
07/05 21:00 7.3 64 5.06 1 13 17 1024.8 0 12.3 22.5 29.2 75.8 60.0 202.7
07/05 20:50 7.4 64 5.09 1 13 15 1024.8 0 12.3 22.5 29.3 76.0 60.3 203.8
07/05 20:40 7.3 64 5.06 1 13 15 1024.7 0 12.3 22.5 29.2 75.8 60.0 202.7
07/05 20:30 7.3 64 5.06 1 13 17 1024.9 0 12.3 22.5 29.2 75.8 60.0 202.7
07/05 20:20 7.4 63 5.01 0.8 11 13 1024.8 0 12.2 22.4 29.0 75.2 59.3 200.2
07/05 20:10 7.3 63 4.98 0.7 15 15 1024.7 0 12.1 22.3 28.9 75.0 58.9 199.1
07/05 20:00 7.3 62 4.9 0.5 13 15 1024.7 0 11.9 22.2 28.6 74.2 57.9 195.6
07/05 19:50 7.5 61 4.88 0.5 11 13 1024.7 0 11.9 22.1 28.4 73.8 57.5 194.2

Last Refresh: 08-May-2026 12:09:22

Bureau of Meteorology